CYUS

Shepherd Bay Airport

Shepherd Bay, Canada
METAR CYUS 160600Z AUTO 32012KT ////SM //// OVC043 02/00 A2963
Observed Flight Rules
Aug-16 @ 06:00 UTC (15 minutes ago)
Wind Clouds
320° at 12 knots
  • Overcast at 4,300' AGL
Temperatures Readings
Current 2°C / 36°F
Dewpoint 0°C / 32°F
Humidity 87%
Altimeter 29.63" Hg
Pressure 1003 hPa
Elevation 42
METAR CYUS 160600Z AUTO 32012KT ////SM //// OVC043 02/00 A2963
Observed Flight Rules
Aug-16 @ 06:00 UTC
(15 minutes ago)
Wind
320° at 12 knots
Clouds
  • Overcast at 4,300' AGL
Temperature Dewpoint
2°C / 36°F 0°C / 32°F
Humidity Altimeter Pressure
87% 29.63" Hg 1003 hPa